sensor_id;sensor_type;location;lat;lon;timestamp;P1;durP1;ratioP1;P2;durP2;ratioP2
79346;SDS011;68815;48.810;44.482;2023-10-19T00:02:21;10.2;;;2.7;;
79346;SDS011;68815;48.810;44.482;2023-10-19T00:05:22;8.6;;;2.5;;
79346;SDS011;68815;48.810;44.482;2023-10-19T00:08:25;7;;;2.6;;
79346;SDS011;68815;48.810;44.482;2023-10-19T00:11:26;9.1;;;2.7;;
79346;SDS011;68815;48.810;44.482;2023-10-19T00:14:28;6.6;;;3.2;;
79346;SDS011;68815;48.810;44.482;2023-10-19T00:17:30;9.3;;;3.2;;
79346;SDS011;68815;48.810;44.482;2023-10-19T00:20:31;7.4;;;3.2;;
79346;SDS011;68815;48.810;44.482;2023-10-19T00:23:33;7.5;;;3.2;;
79346;SDS011;68815;48.810;44.482;2023-10-19T00:26:34;7.8;;;3.1;;
79346;SDS011;68815;48.810;44.482;2023-10-19T00:29:36;8;;;3.1;;
79346;SDS011;68815;48.810;44.482;2023-10-19T00:32:37;8.2;;;3.5;;
79346;SDS011;68815;48.810;44.482;2023-10-19T00:35:39;7;;;3.5;;
79346;SDS011;68815;48.810;44.482;2023-10-19T00:38:41;6.7;;;3.2;;
79346;SDS011;68815;48.810;44.482;2023-10-19T00:41:43;7.8;;;3.3;;
79346;SDS011;68815;48.810;44.482;2023-10-19T00:44:46;8.8;;;3.7;;
79346;SDS011;68815;48.810;44.482;2023-10-19T00:47:47;7;;;3.7;;
79346;SDS011;68815;48.810;44.482;2023-10-19T00:50:49;9.2;;;3.8;;
79346;SDS011;68815;48.810;44.482;2023-10-19T00:53:52;9.9;;;3.7;;
79346;SDS011;68815;48.810;44.482;2023-10-19T00:56:54;9.3;;;3.7;;
79346;SDS011;68815;48.810;44.482;2023-10-19T00:59:56;9;;;3.5;;
79346;SDS011;68815;48.810;44.482;2023-10-19T01:02:57;8.1;;;3.6;;
79346;SDS011;68815;48.810;44.482;2023-10-19T01:06:00;8.3;;;3;;
79346;SDS011;68815;48.810;44.482;2023-10-19T01:09:02;7.9;;;3.6;;
79346;SDS011;68815;48.810;44.482;2023-10-19T01:12:04;9.1;;;3.4;;
79346;SDS011;68815;48.810;44.482;2023-10-19T01:15:07;8.6;;;3.1;;
79346;SDS011;68815;48.810;44.482;2023-10-19T01:18:09;7.3;;;3.1;;
79346;SDS011;68815;48.810;44.482;2023-10-19T01:21:11;7.4;;;3.1;;
79346;SDS011;68815;48.810;44.482;2023-10-19T01:24:13;12.8;;;3.5;;
79346;SDS011;68815;48.810;44.482;2023-10-19T01:27:14;7.5;;;3;;
79346;SDS011;68815;48.810;44.482;2023-10-19T01:30:16;7.6;;;3.3;;
79346;SDS011;68815;48.810;44.482;2023-10-19T01:33:18;8.8;;;3.2;;
79346;SDS011;68815;48.810;44.482;2023-10-19T01:36:19;7.6;;;3.6;;
79346;SDS011;68815;48.810;44.482;2023-10-19T01:39:21;7.3;;;3.3;;
79346;SDS011;68815;48.810;44.482;2023-10-19T01:42:23;8.7;;;3.4;;
79346;SDS011;68815;48.810;44.482;2023-10-19T01:45:25;7;;;3.1;;
79346;SDS011;68815;48.810;44.482;2023-10-19T01:48:26;10.1;;;3.8;;
79346;SDS011;68815;48.810;44.482;2023-10-19T01:51:30;8.9;;;3.5;;
79346;SDS011;68815;48.810;44.482;2023-10-19T01:54:33;6.5;;;3.4;;
79346;SDS011;68815;48.810;44.482;2023-10-19T01:57:35;8;;;3.5;;
79346;SDS011;68815;48.810;44.482;2023-10-19T02:00:36;10.9;;;3.8;;
79346;SDS011;68815;48.810;44.482;2023-10-19T02:03:38;7.8;;;3.6;;
79346;SDS011;68815;48.810;44.482;2023-10-19T02:06:40;10.2;;;3.9;;
79346;SDS011;68815;48.810;44.482;2023-10-19T02:09:42;9.9;;;4.1;;
79346;SDS011;68815;48.810;44.482;2023-10-19T02:12:43;8.5;;;3.9;;
79346;SDS011;68815;48.810;44.482;2023-10-19T02:15:45;16;;;4.7;;
79346;SDS011;68815;48.810;44.482;2023-10-19T02:18:47;9.1;;;4;;
79346;SDS011;68815;48.810;44.482;2023-10-19T02:21:50;10.6;;;4.4;;
79346;SDS011;68815;48.810;44.482;2023-10-19T02:24:52;10.5;;;4.6;;
79346;SDS011;68815;48.810;44.482;2023-10-19T02:27:54;11.4;;;5;;
79346;SDS011;68815;48.810;44.482;2023-10-19T02:30:55;15;;;6.1;;
79346;SDS011;68815;48.810;44.482;2023-10-19T02:33:57;14.1;;;5.4;;
79346;SDS011;68815;48.810;44.482;2023-10-19T02:36:59;13.3;;;6.3;;
79346;SDS011;68815;48.810;44.482;2023-10-19T02:40:00;18;;;6.8;;
79346;SDS011;68815;48.810;44.482;2023-10-19T02:43:02;15.7;;;6.7;;
79346;SDS011;68815;48.810;44.482;2023-10-19T02:46:04;13.8;;;5.6;;
79346;SDS011;68815;48.810;44.482;2023-10-19T02:49:06;15;;;6.7;;
79346;SDS011;68815;48.810;44.482;2023-10-19T02:52:09;15.7;;;6.9;;
79346;SDS011;68815;48.810;44.482;2023-10-19T02:55:11;18.6;;;6.9;;
79346;SDS011;68815;48.810;44.482;2023-10-19T02:58:12;16.5;;;7.1;;
79346;SDS011;68815;48.810;44.482;2023-10-19T03:01:14;16.7;;;7.2;;
79346;SDS011;68815;48.810;44.482;2023-10-19T03:04:17;19.2;;;7.3;;
79346;SDS011;68815;48.810;44.482;2023-10-19T03:07:19;18.4;;;7.5;;
79346;SDS011;68815;48.810;44.482;2023-10-19T03:10:20;19;;;7.7;;
79346;SDS011;68815;48.810;44.482;2023-10-19T03:13:22;17.1;;;7.8;;
79346;SDS011;68815;48.810;44.482;2023-10-19T03:16:24;23.2;;;8.5;;
79346;SDS011;68815;48.810;44.482;2023-10-19T03:19:26;20.4;;;8.3;;
79346;SDS011;68815;48.810;44.482;2023-10-19T03:22:28;23;;;8.2;;
79346;SDS011;68815;48.810;44.482;2023-10-19T03:25:30;21.4;;;8.2;;
79346;SDS011;68815;48.810;44.482;2023-10-19T03:28:32;19.1;;;8.4;;
79346;SDS011;68815;48.810;44.482;2023-10-19T03:31:34;19.7;;;8.4;;
79346;SDS011;68815;48.810;44.482;2023-10-19T03:34:35;21;;;8;;
79346;SDS011;68815;48.810;44.482;2023-10-19T03:37:37;19.3;;;8.5;;
79346;SDS011;68815;48.810;44.482;2023-10-19T03:40:38;22.7;;;8.8;;
79346;SDS011;68815;48.810;44.482;2023-10-19T03:43:40;21.8;;;9.4;;
79346;SDS011;68815;48.810;44.482;2023-10-19T03:46:42;23.7;;;9.3;;
79346;SDS011;68815;48.810;44.482;2023-10-19T03:49:43;26.9;;;9.4;;
79346;SDS011;68815;48.810;44.482;2023-10-19T03:52:45;22.5;;;8.3;;
79346;SDS011;68815;48.810;44.482;2023-10-19T03:55:47;24.9;;;9.5;;
79346;SDS011;68815;48.810;44.482;2023-10-19T03:58:49;21;;;9;;
79346;SDS011;68815;48.810;44.482;2023-10-19T04:01:50;22.3;;;9.6;;
79346;SDS011;68815;48.810;44.482;2023-10-19T04:04:52;23.1;;;9.2;;
79346;SDS011;68815;48.810;44.482;2023-10-19T04:07:54;27.3;;;12.1;;
79346;SDS011;68815;48.810;44.482;2023-10-19T04:10:55;27.5;;;9.5;;
79346;SDS011;68815;48.810;44.482;2023-10-19T04:13:57;21.8;;;7.9;;
79346;SDS011;68815;48.810;44.482;2023-10-19T04:16:59;20.6;;;7.9;;
79346;SDS011;68815;48.810;44.482;2023-10-19T04:20:01;22.7;;;7;;
79346;SDS011;68815;48.810;44.482;2023-10-19T04:23:03;20.1;;;6.4;;
79346;SDS011;68815;48.810;44.482;2023-10-19T04:26:04;17.2;;;6.9;;
79346;SDS011;68815;48.810;44.482;2023-10-19T04:29:06;19;;;6.9;;
79346;SDS011;68815;48.810;44.482;2023-10-19T04:32:08;17.5;;;7.3;;
79346;SDS011;68815;48.810;44.482;2023-10-19T04:35:10;16.7;;;7;;
79346;SDS011;68815;48.810;44.482;2023-10-19T04:38:11;23.6;;;7.7;;
79346;SDS011;68815;48.810;44.482;2023-10-19T04:41:13;18.1;;;6.5;;
79346;SDS011;68815;48.810;44.482;2023-10-19T04:44:14;22.2;;;6.3;;
79346;SDS011;68815;48.810;44.482;2023-10-19T04:47:16;14.2;;;5.6;;
79346;SDS011;68815;48.810;44.482;2023-10-19T04:50:18;17.6;;;6.3;;
79346;SDS011;68815;48.810;44.482;2023-10-19T04:53:19;14.9;;;6.7;;
79346;SDS011;68815;48.810;44.482;2023-10-19T04:56:21;16.3;;;6.4;;
79346;SDS011;68815;48.810;44.482;2023-10-19T04:59:23;15.6;;;6.3;;
79346;SDS011;68815;48.810;44.482;2023-10-19T05:02:25;23.4;;;6.8;;
79346;SDS011;68815;48.810;44.482;2023-10-19T05:05:27;16;;;5.9;;
79346;SDS011;68815;48.810;44.482;2023-10-19T05:08:28;17.3;;;6.2;;
79346;SDS011;68815;48.810;44.482;2023-10-19T05:11:31;16.4;;;6.5;;
79346;SDS011;68815;48.810;44.482;2023-10-19T05:14:32;15.8;;;6.3;;
79346;SDS011;68815;48.810;44.482;2023-10-19T05:17:34;17.5;;;6.3;;
79346;SDS011;68815;48.810;44.482;2023-10-19T05:20:36;22;;;7;;
79346;SDS011;68815;48.810;44.482;2023-10-19T05:23:38;15.5;;;6.8;;
79346;SDS011;68815;48.810;44.482;2023-10-19T05:26:39;19.3;;;7.6;;
79346;SDS011;68815;48.810;44.482;2023-10-19T05:29:41;20.7;;;8.4;;
79346;SDS011;68815;48.810;44.482;2023-10-19T05:32:42;21.9;;;7.8;;
79346;SDS011;68815;48.810;44.482;2023-10-19T05:35:44;21.2;;;7.9;;
79346;SDS011;68815;48.810;44.482;2023-10-19T05:38:45;16.5;;;7.4;;
79346;SDS011;68815;48.810;44.482;2023-10-19T05:41:47;22.1;;;8.4;;
79346;SDS011;68815;48.810;44.482;2023-10-19T05:44:48;24.3;;;8.6;;
79346;SDS011;68815;48.810;44.482;2023-10-19T05:47:50;20.6;;;8.8;;
79346;SDS011;68815;48.810;44.482;2023-10-19T05:50:52;17.3;;;7.9;;
79346;SDS011;68815;48.810;44.482;2023-10-19T05:53:53;20.2;;;8.7;;
79346;SDS011;68815;48.810;44.482;2023-10-19T05:56:55;21;;;8.9;;
79346;SDS011;68815;48.810;44.482;2023-10-19T05:59:57;21.8;;;8.3;;
79346;SDS011;68815;48.810;44.482;2023-10-19T06:02:59;15.6;;;8.1;;
79346;SDS011;68815;48.810;44.482;2023-10-19T06:06:01;19.8;;;7.9;;
79346;SDS011;68815;48.810;44.482;2023-10-19T06:09:02;27.2;;;7.8;;
79346;SDS011;68815;48.810;44.482;2023-10-19T06:12:05;17.8;;;7.4;;
79346;SDS011;68815;48.810;44.482;2023-10-19T06:15:07;21.2;;;7.3;;
79346;SDS011;68815;48.810;44.482;2023-10-19T06:18:09;13.3;;;6;;
79346;SDS011;68815;48.810;44.482;2023-10-19T06:21:10;16;;;5.4;;
79346;SDS011;68815;48.810;44.482;2023-10-19T06:24:12;9.9;;;4.3;;
79346;SDS011;68815;48.810;44.482;2023-10-19T06:27:14;12;;;4.6;;
79346;SDS011;68815;48.810;44.482;2023-10-19T06:30:16;11.3;;;4.3;;
79346;SDS011;68815;48.810;44.482;2023-10-19T06:33:19;8.4;;;3.6;;
79346;SDS011;68815;48.810;44.482;2023-10-19T06:36:21;9.1;;;3.7;;
79346;SDS011;68815;48.810;44.482;2023-10-19T06:39:23;8.7;;;3.2;;
79346;SDS011;68815;48.810;44.482;2023-10-19T06:42:24;9.3;;;3.4;;
79346;SDS011;68815;48.810;44.482;2023-10-19T06:45:26;8.2;;;3.6;;
79346;SDS011;68815;48.810;44.482;2023-10-19T06:48:43;11;;;4.2;;
79346;SDS011;68815;48.810;44.482;2023-10-19T06:51:44;18.4;;;6.8;;
79346;SDS011;68815;48.810;44.482;2023-10-19T06:54:46;12.3;;;5.4;;
79346;SDS011;68815;48.810;44.482;2023-10-19T06:57:48;11.2;;;4.6;;
79346;SDS011;68815;48.810;44.482;2023-10-19T07:00:51;9.9;;;4.8;;
79346;SDS011;68815;48.810;44.482;2023-10-19T07:03:53;10.5;;;4.2;;
79346;SDS011;68815;48.810;44.482;2023-10-19T07:06:54;13.8;;;4.8;;
79346;SDS011;68815;48.810;44.482;2023-10-19T07:09:56;9.4;;;5.3;;
79346;SDS011;68815;48.810;44.482;2023-10-19T07:12:58;11;;;5.2;;
79346;SDS011;68815;48.810;44.482;2023-10-19T07:16:01;8.2;;;3.8;;
79346;SDS011;68815;48.810;44.482;2023-10-19T07:19:03;10.1;;;4.1;;
79346;SDS011;68815;48.810;44.482;2023-10-19T07:22:05;7.8;;;3.5;;
79346;SDS011;68815;48.810;44.482;2023-10-19T07:25:09;11;;;3.8;;
79346;SDS011;68815;48.810;44.482;2023-10-19T07:28:10;10.9;;;4;;
79346;SDS011;68815;48.810;44.482;2023-10-19T07:31:12;8.4;;;3.5;;
79346;SDS011;68815;48.810;44.482;2023-10-19T07:34:14;10.5;;;4;;
79346;SDS011;68815;48.810;44.482;2023-10-19T07:37:15;8.9;;;3.7;;
79346;SDS011;68815;48.810;44.482;2023-10-19T07:40:17;10.2;;;3.9;;
79346;SDS011;68815;48.810;44.482;2023-10-19T07:43:20;13.7;;;4.4;;
79346;SDS011;68815;48.810;44.482;2023-10-19T07:46:21;9;;;4.1;;
79346;SDS011;68815;48.810;44.482;2023-10-19T07:49:23;15.1;;;4.5;;
79346;SDS011;68815;48.810;44.482;2023-10-19T07:52:25;11.3;;;4.6;;
79346;SDS011;68815;48.810;44.482;2023-10-19T07:55:27;8.4;;;3.9;;
79346;SDS011;68815;48.810;44.482;2023-10-19T07:58:29;9.9;;;4.3;;
79346;SDS011;68815;48.810;44.482;2023-10-19T08:01:30;9.8;;;4.4;;
79346;SDS011;68815;48.810;44.482;2023-10-19T08:04:32;13.1;;;4.7;;
79346;SDS011;68815;48.810;44.482;2023-10-19T08:07:34;12;;;4.8;;
79346;SDS011;68815;48.810;44.482;2023-10-19T08:10:35;12.6;;;4.7;;
79346;SDS011;68815;48.810;44.482;2023-10-19T08:13:37;14;;;4.7;;
79346;SDS011;68815;48.810;44.482;2023-10-19T08:16:39;16.4;;;5.6;;
79346;SDS011;68815;48.810;44.482;2023-10-19T08:19:46;15.9;;;5.9;;
79346;SDS011;68815;48.810;44.482;2023-10-19T08:22:47;15.6;;;5.8;;
79346;SDS011;68815;48.810;44.482;2023-10-19T08:25:50;11.5;;;5.1;;
79346;SDS011;68815;48.810;44.482;2023-10-19T08:28:51;17.3;;;5.4;;
79346;SDS011;68815;48.810;44.482;2023-10-19T08:31:53;13.5;;;5.3;;
79346;SDS011;68815;48.810;44.482;2023-10-19T08:34:54;12.5;;;5.2;;
79346;SDS011;68815;48.810;44.482;2023-10-19T08:37:56;13.2;;;4.4;;
79346;SDS011;68815;48.810;44.482;2023-10-19T08:40:58;12;;;4.1;;
79346;SDS011;68815;48.810;44.482;2023-10-19T08:44:01;11.6;;;4.2;;
79346;SDS011;68815;48.810;44.482;2023-10-19T08:47:05;10;;;4.2;;
79346;SDS011;68815;48.810;44.482;2023-10-19T08:50:07;8.2;;;3.4;;
79346;SDS011;68815;48.810;44.482;2023-10-19T08:53:10;9.7;;;3.8;;
79346;SDS011;68815;48.810;44.482;2023-10-19T08:56:11;7.5;;;3.6;;
79346;SDS011;68815;48.810;44.482;2023-10-19T08:59:13;8.8;;;3.6;;
79346;SDS011;68815;48.810;44.482;2023-10-19T09:02:15;9.9;;;3.5;;
79346;SDS011;68815;48.810;44.482;2023-10-19T09:05:17;9.9;;;3.9;;
79346;SDS011;68815;48.810;44.482;2023-10-19T09:08:19;8.6;;;3.8;;
79346;SDS011;68815;48.810;44.482;2023-10-19T09:11:21;7.8;;;3;;
79346;SDS011;68815;48.810;44.482;2023-10-19T09:14:30;7.5;;;3.1;;
79346;SDS011;68815;48.810;44.482;2023-10-19T09:17:35;9.8;;;3.3;;
79346;SDS011;68815;48.810;44.482;2023-10-19T09:20:36;7.3;;;2.5;;
79346;SDS011;68815;48.810;44.482;2023-10-19T09:23:38;6.7;;;2.6;;
79346;SDS011;68815;48.810;44.482;2023-10-19T09:26:40;8.6;;;2.8;;
79346;SDS011;68815;48.810;44.482;2023-10-19T09:29:41;7.1;;;2.4;;
79346;SDS011;68815;48.810;44.482;2023-10-19T09:32:43;5.6;;;2.3;;
79346;SDS011;68815;48.810;44.482;2023-10-19T09:35:47;6.4;;;1.9;;
79346;SDS011;68815;48.810;44.482;2023-10-19T09:38:50;5.6;;;2.4;;
79346;SDS011;68815;48.810;44.482;2023-10-19T09:41:52;7.5;;;2.6;;
79346;SDS011;68815;48.810;44.482;2023-10-19T09:44:59;6.9;;;2.7;;
79346;SDS011;68815;48.810;44.482;2023-10-19T09:48:05;7.7;;;2.6;;
79346;SDS011;68815;48.810;44.482;2023-10-19T09:51:08;12.7;;;5.1;;
79346;SDS011;68815;48.810;44.482;2023-10-19T09:54:13;10.6;;;4.1;;
79346;SDS011;68815;48.810;44.482;2023-10-19T09:57:31;9.3;;;3.4;;
79346;SDS011;68815;48.810;44.482;2023-10-19T10:00:36;10.4;;;4.3;;
79346;SDS011;68815;48.810;44.482;2023-10-19T10:03:45;8.9;;;3.4;;
79346;SDS011;68815;48.810;44.482;2023-10-19T10:10:08;10;;;4.7;;
79346;SDS011;68815;48.810;44.482;2023-10-19T10:16:41;12.5;;;4.1;;
79346;SDS011;68815;48.810;44.482;2023-10-19T10:19:44;10;;;4.1;;
79346;SDS011;68815;48.810;44.482;2023-10-19T10:22:52;11.8;;;4.9;;
79346;SDS011;68815;48.810;44.482;2023-10-19T10:26:13;11.9;;;4.5;;
79346;SDS011;68815;48.810;44.482;2023-10-19T10:29:17;9.3;;;4.3;;
79346;SDS011;68815;48.810;44.482;2023-10-19T10:35:55;7.3;;;3.7;;
79346;SDS011;68815;48.810;44.482;2023-10-19T10:39:01;11.3;;;3.9;;
79346;SDS011;68815;48.810;44.482;2023-10-19T10:42:05;13.1;;;4.5;;
79346;SDS011;68815;48.810;44.482;2023-10-19T10:45:12;12.4;;;3.5;;
79346;SDS011;68815;48.810;44.482;2023-10-19T10:48:20;12.2;;;4;;
79346;SDS011;68815;48.810;44.482;2023-10-19T10:51:22;9.2;;;3.5;;
79346;SDS011;68815;48.810;44.482;2023-10-19T10:54:24;11.6;;;4.3;;
79346;SDS011;68815;48.810;44.482;2023-10-19T10:57:32;10.1;;;4.9;;
79346;SDS011;68815;48.810;44.482;2023-10-19T11:00:41;12.9;;;4.9;;
79346;SDS011;68815;48.810;44.482;2023-10-19T11:03:44;17.7;;;6.8;;
79346;SDS011;68815;48.810;44.482;2023-10-19T11:06:46;8.4;;;4.5;;
79346;SDS011;68815;48.810;44.482;2023-10-19T11:09:48;11.3;;;4.7;;
79346;SDS011;68815;48.810;44.482;2023-10-19T11:12:51;13;;;6.2;;
79346;SDS011;68815;48.810;44.482;2023-10-19T11:15:53;16;;;5.9;;
79346;SDS011;68815;48.810;44.482;2023-10-19T11:18:56;11.8;;;5.7;;
79346;SDS011;68815;48.810;44.482;2023-10-19T11:21:57;16.5;;;6.1;;
79346;SDS011;68815;48.810;44.482;2023-10-19T11:28:25;12.6;;;5.2;;
79346;SDS011;68815;48.810;44.482;2023-10-19T11:31:27;15.1;;;6.3;;
79346;SDS011;68815;48.810;44.482;2023-10-19T11:34:29;14.7;;;6.6;;
79346;SDS011;68815;48.810;44.482;2023-10-19T11:40:47;20.7;;;8.4;;
79346;SDS011;68815;48.810;44.482;2023-10-19T11:43:48;15.2;;;7.2;;
79346;SDS011;68815;48.810;44.482;2023-10-19T11:46:50;17.9;;;8;;
79346;SDS011;68815;48.810;44.482;2023-10-19T11:49:52;17;;;7.2;;
79346;SDS011;68815;48.810;44.482;2023-10-19T11:52:53;17.1;;;7.6;;
79346;SDS011;68815;48.810;44.482;2023-10-19T11:55:55;20;;;8.4;;
79346;SDS011;68815;48.810;44.482;2023-10-19T11:58:56;21.5;;;8.9;;
79346;SDS011;68815;48.810;44.482;2023-10-19T12:01:58;18.1;;;8.7;;
79346;SDS011;68815;48.810;44.482;2023-10-19T12:05:01;18.5;;;7.5;;
79346;SDS011;68815;48.810;44.482;2023-10-19T12:08:03;16;;;7.3;;
79346;SDS011;68815;48.810;44.482;2023-10-19T12:11:05;11.2;;;6.1;;
79346;SDS011;68815;48.810;44.482;2023-10-19T12:14:06;12.4;;;7;;
79346;SDS011;68815;48.810;44.482;2023-10-19T12:17:09;15.6;;;7.7;;
79346;SDS011;68815;48.810;44.482;2023-10-19T12:20:11;21.8;;;9.1;;
79346;SDS011;68815;48.810;44.482;2023-10-19T12:23:12;21.3;;;9.5;;
79346;SDS011;68815;48.810;44.482;2023-10-19T12:26:15;21.7;;;10.5;;
79346;SDS011;68815;48.810;44.482;2023-10-19T12:29:16;26.3;;;10.6;;
79346;SDS011;68815;48.810;44.482;2023-10-19T12:32:18;26.8;;;10.7;;
79346;SDS011;68815;48.810;44.482;2023-10-19T12:35:20;27.6;;;11.2;;
79346;SDS011;68815;48.810;44.482;2023-10-19T12:38:21;23;;;9.8;;
79346;SDS011;68815;48.810;44.482;2023-10-19T12:41:24;28.8;;;10.4;;
79346;SDS011;68815;48.810;44.482;2023-10-19T12:44:26;30.7;;;11;;
79346;SDS011;68815;48.810;44.482;2023-10-19T12:47:27;27;;;10.6;;
79346;SDS011;68815;48.810;44.482;2023-10-19T12:50:30;29.5;;;11.5;;
79346;SDS011;68815;48.810;44.482;2023-10-19T12:53:32;32.5;;;11.4;;
79346;SDS011;68815;48.810;44.482;2023-10-19T12:56:33;29.5;;;13.2;;
79346;SDS011;68815;48.810;44.482;2023-10-19T12:59:35;28.5;;;13.3;;
79346;SDS011;68815;48.810;44.482;2023-10-19T13:02:37;33.4;;;13.9;;
79346;SDS011;68815;48.810;44.482;2023-10-19T13:05:40;31.1;;;14;;
79346;SDS011;68815;48.810;44.482;2023-10-19T13:08:42;33.1;;;13.9;;
79346;SDS011;68815;48.810;44.482;2023-10-19T13:11:43;36.4;;;15.2;;
79346;SDS011;68815;48.810;44.482;2023-10-19T13:14:45;35.4;;;16.1;;
79346;SDS011;68815;48.810;44.482;2023-10-19T13:17:47;38.7;;;14;;
79346;SDS011;68815;48.810;44.482;2023-10-19T13:20:49;33.2;;;14;;
79346;SDS011;68815;48.810;44.482;2023-10-19T13:23:50;34.6;;;14.4;;
79346;SDS011;68815;48.810;44.482;2023-10-19T13:26:52;36.9;;;13.3;;
79346;SDS011;68815;48.810;44.482;2023-10-19T13:29:54;36.2;;;13.9;;
79346;SDS011;68815;48.810;44.482;2023-10-19T13:32:55;33.9;;;13.2;;
79346;SDS011;68815;48.810;44.482;2023-10-19T13:35:57;33.9;;;13.2;;
79346;SDS011;68815;48.810;44.482;2023-10-19T13:38:59;31.1;;;12.7;;
79346;SDS011;68815;48.810;44.482;2023-10-19T13:42:01;36.4;;;13.1;;
79346;SDS011;68815;48.810;44.482;2023-10-19T13:45:17;37.2;;;14.4;;
79346;SDS011;68815;48.810;44.482;2023-10-19T13:48:19;26.8;;;11.6;;
79346;SDS011;68815;48.810;44.482;2023-10-19T13:51:20;25.9;;;11.3;;
79346;SDS011;68815;48.810;44.482;2023-10-19T13:54:22;82;;;34.6;;
79346;SDS011;68815;48.810;44.482;2023-10-19T13:57:24;29.1;;;11.6;;
79346;SDS011;68815;48.810;44.482;2023-10-19T14:00:26;28.3;;;10.9;;
79346;SDS011;68815;48.810;44.482;2023-10-19T14:03:27;28.8;;;10.6;;
79346;SDS011;68815;48.810;44.482;2023-10-19T14:06:29;26.7;;;10.1;;
79346;SDS011;68815;48.810;44.482;2023-10-19T14:09:31;26.2;;;10.2;;
79346;SDS011;68815;48.810;44.482;2023-10-19T14:12:32;20.5;;;9.2;;
79346;SDS011;68815;48.810;44.482;2023-10-19T14:15:34;18.6;;;7.8;;
79346;SDS011;68815;48.810;44.482;2023-10-19T14:18:36;22.8;;;9.1;;
79346;SDS011;68815;48.810;44.482;2023-10-19T14:21:38;17.8;;;7.3;;
79346;SDS011;68815;48.810;44.482;2023-10-19T14:24:39;16.1;;;6.7;;
79346;SDS011;68815;48.810;44.482;2023-10-19T14:27:42;16.4;;;5.6;;
79346;SDS011;68815;48.810;44.482;2023-10-19T14:30:45;15.7;;;6.7;;
79346;SDS011;68815;48.810;44.482;2023-10-19T14:33:47;17.1;;;6.2;;
79346;SDS011;68815;48.810;44.482;2023-10-19T14:36:48;28.4;;;8.4;;
79346;SDS011;68815;48.810;44.482;2023-10-19T14:39:50;21.2;;;6.5;;
79346;SDS011;68815;48.810;44.482;2023-10-19T14:42:52;17.1;;;6.6;;
79346;SDS011;68815;48.810;44.482;2023-10-19T14:45:55;24.6;;;8.3;;
79346;SDS011;68815;48.810;44.482;2023-10-19T14:48:57;26.2;;;10.5;;
79346;SDS011;68815;48.810;44.482;2023-10-19T14:51:59;30.2;;;13.8;;
79346;SDS011;68815;48.810;44.482;2023-10-19T14:55:00;27.8;;;11.2;;
79346;SDS011;68815;48.810;44.482;2023-10-19T14:58:02;28.9;;;11.8;;
79346;SDS011;68815;48.810;44.482;2023-10-19T15:01:04;27;;;11.9;;
79346;SDS011;68815;48.810;44.482;2023-10-19T15:04:06;23.9;;;11.1;;
79346;SDS011;68815;48.810;44.482;2023-10-19T15:07:08;19.2;;;8.8;;
79346;SDS011;68815;48.810;44.482;2023-10-19T15:10:10;24.7;;;8.9;;
79346;SDS011;68815;48.810;44.482;2023-10-19T15:13:14;23.3;;;9.1;;
79346;SDS011;68815;48.810;44.482;2023-10-19T15:16:15;20.6;;;8.9;;
79346;SDS011;68815;48.810;44.482;2023-10-19T15:19:17;22.4;;;9.5;;
79346;SDS011;68815;48.810;44.482;2023-10-19T15:22:19;33.7;;;11.3;;
79346;SDS011;68815;48.810;44.482;2023-10-19T15:25:21;32;;;12.9;;
79346;SDS011;68815;48.810;44.482;2023-10-19T15:28:23;45.5;;;20;;
79346;SDS011;68815;48.810;44.482;2023-10-19T15:31:25;44.4;;;16.6;;
79346;SDS011;68815;48.810;44.482;2023-10-19T15:34:27;55.1;;;23.8;;
79346;SDS011;68815;48.810;44.482;2023-10-19T15:37:29;52;;;25.2;;
79346;SDS011;68815;48.810;44.482;2023-10-19T15:40:31;51.4;;;22.8;;
79346;SDS011;68815;48.810;44.482;2023-10-19T15:43:33;46.2;;;21;;
79346;SDS011;68815;48.810;44.482;2023-10-19T15:46:35;41.8;;;19;;
79346;SDS011;68815;48.810;44.482;2023-10-19T15:49:37;44.9;;;17.5;;
79346;SDS011;68815;48.810;44.482;2023-10-19T15:52:48;38.5;;;19.4;;
79346;SDS011;68815;48.810;44.482;2023-10-19T15:55:49;44.6;;;17.1;;
79346;SDS011;68815;48.810;44.482;2023-10-19T15:58:51;40.3;;;16.1;;
79346;SDS011;68815;48.810;44.482;2023-10-19T16:01:53;38.1;;;15.1;;
79346;SDS011;68815;48.810;44.482;2023-10-19T16:04:54;32.6;;;14.2;;
79346;SDS011;68815;48.810;44.482;2023-10-19T16:07:56;33.3;;;13.3;;
79346;SDS011;68815;48.810;44.482;2023-10-19T16:10:57;30.1;;;11.8;;
79346;SDS011;68815;48.810;44.482;2023-10-19T16:13:59;32.5;;;11.8;;
79346;SDS011;68815;48.810;44.482;2023-10-19T16:17:01;29.1;;;11.9;;
79346;SDS011;68815;48.810;44.482;2023-10-19T16:20:03;23.9;;;10.5;;
79346;SDS011;68815;48.810;44.482;2023-10-19T16:23:05;28.3;;;10.4;;
79346;SDS011;68815;48.810;44.482;2023-10-19T16:26:07;31.3;;;11.1;;
79346;SDS011;68815;48.810;44.482;2023-10-19T16:29:08;20.8;;;8.6;;
79346;SDS011;68815;48.810;44.482;2023-10-19T16:32:10;21.1;;;8.8;;
79346;SDS011;68815;48.810;44.482;2023-10-19T16:35:12;20.6;;;8;;
79346;SDS011;68815;48.810;44.482;2023-10-19T16:38:13;23.7;;;8.9;;
79346;SDS011;68815;48.810;44.482;2023-10-19T16:41:15;22.5;;;9.6;;
79346;SDS011;68815;48.810;44.482;2023-10-19T16:44:16;19.8;;;8.8;;
79346;SDS011;68815;48.810;44.482;2023-10-19T16:47:18;21.5;;;8.4;;
79346;SDS011;68815;48.810;44.482;2023-10-19T16:50:19;18.7;;;7.1;;
79346;SDS011;68815;48.810;44.482;2023-10-19T16:53:22;17.1;;;7.6;;
79346;SDS011;68815;48.810;44.482;2023-10-19T16:56:23;25.5;;;9.7;;
79346;SDS011;68815;48.810;44.482;2023-10-19T16:59:25;18.8;;;8;;
79346;SDS011;68815;48.810;44.482;2023-10-19T17:02:27;29.7;;;10.1;;
79346;SDS011;68815;48.810;44.482;2023-10-19T17:05:29;34.4;;;10.6;;
79346;SDS011;68815;48.810;44.482;2023-10-19T17:08:30;26.8;;;9.6;;
79346;SDS011;68815;48.810;44.482;2023-10-19T17:11:32;29.8;;;9.4;;
79346;SDS011;68815;48.810;44.482;2023-10-19T17:14:34;29.3;;;11;;
79346;SDS011;68815;48.810;44.482;2023-10-19T17:17:36;26.3;;;9.7;;
79346;SDS011;68815;48.810;44.482;2023-10-19T17:20:38;30.7;;;11.2;;
79346;SDS011;68815;48.810;44.482;2023-10-19T17:23:39;29.1;;;10.1;;
79346;SDS011;68815;48.810;44.482;2023-10-19T17:26:41;38.7;;;12.3;;
79346;SDS011;68815;48.810;44.482;2023-10-19T17:29:43;27;;;9.2;;
79346;SDS011;68815;48.810;44.482;2023-10-19T17:32:44;20.9;;;8.5;;
79346;SDS011;68815;48.810;44.482;2023-10-19T17:35:46;20.2;;;6.5;;
79346;SDS011;68815;48.810;44.482;2023-10-19T17:38:48;18.5;;;6.8;;
79346;SDS011;68815;48.810;44.482;2023-10-19T17:41:50;15.2;;;5.9;;
79346;SDS011;68815;48.810;44.482;2023-10-19T17:44:51;13.1;;;5.5;;
79346;SDS011;68815;48.810;44.482;2023-10-19T17:47:53;13.5;;;5.2;;
79346;SDS011;68815;48.810;44.482;2023-10-19T17:50:55;21.3;;;7;;
79346;SDS011;68815;48.810;44.482;2023-10-19T17:53:57;21.2;;;6.5;;
79346;SDS011;68815;48.810;44.482;2023-10-19T17:56:59;20.4;;;6.6;;
79346;SDS011;68815;48.810;44.482;2023-10-19T18:00:00;14.2;;;5.9;;
79346;SDS011;68815;48.810;44.482;2023-10-19T18:03:02;13.7;;;5.3;;
79346;SDS011;68815;48.810;44.482;2023-10-19T18:06:05;15.7;;;5.9;;
79346;SDS011;68815;48.810;44.482;2023-10-19T18:09:08;17.9;;;6.7;;
79346;SDS011;68815;48.810;44.482;2023-10-19T18:12:10;11.8;;;5.1;;
79346;SDS011;68815;48.810;44.482;2023-10-19T18:15:12;10.2;;;4.2;;
79346;SDS011;68815;48.810;44.482;2023-10-19T18:18:13;17.1;;;5.4;;
79346;SDS011;68815;48.810;44.482;2023-10-19T18:21:15;17;;;5.4;;
79346;SDS011;68815;48.810;44.482;2023-10-19T18:24:17;13.9;;;4.6;;
79346;SDS011;68815;48.810;44.482;2023-10-19T18:27:18;10.1;;;3.9;;
79346;SDS011;68815;48.810;44.482;2023-10-19T18:30:20;9.4;;;4.2;;
79346;SDS011;68815;48.810;44.482;2023-10-19T18:33:22;9.2;;;4;;
79346;SDS011;68815;48.810;44.482;2023-10-19T18:36:24;10.7;;;4.2;;
79346;SDS011;68815;48.810;44.482;2023-10-19T18:39:27;9.9;;;4.2;;
79346;SDS011;68815;48.810;44.482;2023-10-19T18:42:28;11.8;;;4;;